createdAt,value
2017-11-08T00:00:25.033Z,10.17
2017-11-08T00:02:52.433Z,9.97
2017-11-08T00:04:59.306Z,10.70
2017-11-08T00:07:08.925Z,10.43
2017-11-08T00:09:15.598Z,10.73
2017-11-08T00:11:29.402Z,9.90
2017-11-08T00:13:35.932Z,10.30
2017-11-08T00:15:47.203Z,11.10
2017-11-08T00:17:56.797Z,10.60
2017-11-08T00:20:04.840Z,9.90
2017-11-08T00:22:20.927Z,9.40
2017-11-08T00:24:33.852Z,11.07
2017-11-08T00:26:40.136Z,9.80
2017-11-08T00:28:57.873Z,9.70
2017-11-08T00:31:07.542Z,9.70
2017-11-08T00:33:17.719Z,9.37
2017-11-08T00:35:56.356Z,10.13
2017-11-08T00:38:07.291Z,10.70
2017-11-08T00:40:18.961Z,9.90
2017-11-08T00:42:28.385Z,9.80
2017-11-08T00:44:37.530Z,9.80
2017-11-08T00:46:52.763Z,10.57
2017-11-08T00:49:02.883Z,9.77
2017-11-08T00:51:09.303Z,10.33
2017-11-08T00:53:19.811Z,9.07
2017-11-08T00:55:28.333Z,10.50
2017-11-08T00:57:38.358Z,10.17
2017-11-08T00:59:44.567Z,10.00
2017-11-08T01:01:50.506Z,9.60
2017-11-08T01:03:56.649Z,10.27
2017-11-08T01:06:14.526Z,9.97
2017-11-08T01:08:20.625Z,10.20
2017-11-08T01:10:27.208Z,9.87
2017-11-08T01:12:36.596Z,9.50
2017-11-08T01:14:58.306Z,10.73
2017-11-08T01:17:05.214Z,10.10
2017-11-08T01:19:13.260Z,9.93
2017-11-08T01:21:21.151Z,10.27
2017-11-08T01:23:31.554Z,10.80
2017-11-08T01:25:41.339Z,11.20
2017-11-08T01:27:50.300Z,9.63
2017-11-08T01:29:56.130Z,9.23
2017-11-08T01:32:04.681Z,10.57
2017-11-08T01:34:13.297Z,9.93
2017-11-08T01:36:24.242Z,10.20
2017-11-08T01:38:29.925Z,10.83
2017-11-08T01:40:42.891Z,10.80
2017-11-08T01:42:51.413Z,9.80
2017-11-08T01:44:58.331Z,10.13
2017-11-08T01:47:05.047Z,9.80
2017-11-08T01:49:22.076Z,10.60
2017-11-08T01:51:39.004Z,9.60
2017-11-08T01:53:44.928Z,10.37
2017-11-08T01:55:50.705Z,10.33
2017-11-08T01:58:02.934Z,10.73
2017-11-08T02:00:09.096Z,11.13
2017-11-08T02:02:21.718Z,10.80
2017-11-08T02:04:27.704Z,9.70
2017-11-08T02:06:37.086Z,10.90
2017-11-08T02:08:44.283Z,10.23
2017-11-08T02:10:54.003Z,10.37
2017-11-08T02:13:00.509Z,10.47
2017-11-08T02:15:07.141Z,9.50
2017-11-08T02:17:15.674Z,9.93
2017-11-08T02:19:23.353Z,9.57
2017-11-08T02:21:31.272Z,10.43
2017-11-08T02:23:37.741Z,10.40
2017-11-08T02:25:43.492Z,9.73
2017-11-08T02:27:50.316Z,10.50
2017-11-08T02:30:00.942Z,11.20
2017-11-08T02:32:07.597Z,10.47
2017-11-08T02:34:15.290Z,10.67
2017-11-08T02:36:21.331Z,11.10
2017-11-08T02:38:27.023Z,9.43
2017-11-08T02:40:32.833Z,10.70
2017-11-08T02:42:38.532Z,10.33
2017-11-08T02:44:46.633Z,10.77
2017-11-08T02:47:04.132Z,10.93
2017-11-08T02:49:10.440Z,9.47
2017-11-08T02:51:23.138Z,9.90
2017-11-08T02:53:38.333Z,11.13
2017-11-08T02:55:50.640Z,10.53
2017-11-08T02:57:57.842Z,9.97
2017-11-08T03:00:06.662Z,10.60
2017-11-08T03:02:21.152Z,10.63
2017-11-08T03:04:28.393Z,11.37
2017-11-08T03:06:36.690Z,10.10
2017-11-08T03:08:43.672Z,10.17
2017-11-08T03:11:14.975Z,10.40
2017-11-08T03:13:21.448Z,10.57
2017-11-08T03:15:27.252Z,11.73
2017-11-08T03:17:32.806Z,10.60
2017-11-08T03:22:13.960Z,11.97
2017-11-08T03:24:19.559Z,11.60
2017-11-08T03:26:25.939Z,11.10
2017-11-08T03:28:31.578Z,11.00
2017-11-08T03:30:37.134Z,11.47
2017-11-08T03:32:43.059Z,11.53
2017-11-08T03:34:48.893Z,11.10
2017-11-08T03:36:54.311Z,11.23
2017-11-08T03:38:59.949Z,11.40
2017-11-08T03:41:05.907Z,11.23
2017-11-08T03:43:11.330Z,11.00
2017-11-08T03:45:17.036Z,11.83
2017-11-08T03:47:26.971Z,11.27
2017-11-08T03:49:32.697Z,11.50
2017-11-08T03:51:39.098Z,11.87
2017-11-08T03:53:46.974Z,12.90
2017-11-08T03:55:52.650Z,10.83
2017-11-08T03:57:58.718Z,12.40
2017-11-08T04:00:07.445Z,12.13
2017-11-08T04:02:14.061Z,12.50
2017-11-08T04:04:19.708Z,12.10
2017-11-08T04:06:26.002Z,11.83
2017-11-08T04:08:32.345Z,11.70
2017-11-08T04:10:37.807Z,12.37
2017-11-08T04:12:43.104Z,12.33
2017-11-08T04:14:50.251Z,12.40
2017-11-08T04:16:55.792Z,12.47
2017-11-08T04:19:02.283Z,13.00
2017-11-08T04:21:07.395Z,13.20
2017-11-08T04:23:12.401Z,12.93
2017-11-08T04:25:21.752Z,12.63
2017-11-08T04:27:27.197Z,13.03
2017-11-08T04:29:32.456Z,13.27
2017-11-08T04:31:39.009Z,13.10
2017-11-08T04:33:45.194Z,12.73
2017-11-08T04:35:50.728Z,13.87
2017-11-08T04:37:55.827Z,13.63
2017-11-08T04:40:03.436Z,12.67
2017-11-08T04:42:08.700Z,13.40
2017-11-08T04:44:14.269Z,13.77
2017-11-08T04:46:21.205Z,13.47
2017-11-08T04:48:26.861Z,13.03
2017-11-08T04:50:32.075Z,13.50
2017-11-08T04:52:37.479Z,13.80
2017-11-08T04:54:46.560Z,13.60
2017-11-08T04:56:51.938Z,12.97
2017-11-08T04:58:57.320Z,13.07
2017-11-08T05:01:02.729Z,13.93
2017-11-08T05:03:09.694Z,12.90
2017-11-08T05:05:15.314Z,13.70
2017-11-08T05:07:20.423Z,14.10
2017-11-08T05:09:25.643Z,12.80
2017-11-08T05:11:31.092Z,13.40
2017-11-08T05:13:36.201Z,13.90
2017-11-08T05:15:42.641Z,14.03
2017-11-08T05:17:48.732Z,12.70
2017-11-08T05:19:56.468Z,14.23
2017-11-08T05:22:02.302Z,13.03
2017-11-08T05:24:07.622Z,13.40
2017-11-08T05:26:12.907Z,13.10
2017-11-08T05:28:19.094Z,13.50
2017-11-08T05:30:24.644Z,13.27
2017-11-08T05:32:29.997Z,13.57
2017-11-08T05:34:35.476Z,13.87
2017-11-08T05:36:41.180Z,13.30
2017-11-08T05:38:53.931Z,14.30
2017-11-08T05:40:59.166Z,12.53
2017-11-08T05:43:04.594Z,14.33
2017-11-08T05:45:11.594Z,14.90
2017-11-08T05:47:24.158Z,14.00
2017-11-08T05:49:29.723Z,14.67
2017-11-08T05:51:36.834Z,13.80
2017-11-08T05:56:02.156Z,13.53
2017-11-08T05:58:07.531Z,14.23
2017-11-08T06:00:17.496Z,14.13
2017-11-08T06:02:23.057Z,15.00
2017-11-08T06:04:28.935Z,13.43
2017-11-08T06:06:36.799Z,13.80
2017-11-08T06:08:44.982Z,14.77
2017-11-08T06:10:52.042Z,15.00
2017-11-08T06:13:00.256Z,14.20
2017-11-08T06:15:07.792Z,14.63
2017-11-08T06:26:09.993Z,14.33
2017-11-08T06:28:15.400Z,14.70
2017-11-08T06:30:20.856Z,15.60
2017-11-08T06:32:27.403Z,14.80
2017-11-08T06:34:32.678Z,14.43
2017-11-08T06:36:39.049Z,16.00
2017-11-08T06:38:47.351Z,15.47
2017-11-08T06:40:54.396Z,14.80
2017-11-08T06:43:07.921Z,14.67
2017-11-08T06:45:13.758Z,15.33
2017-11-08T06:47:19.218Z,15.37
2017-11-08T06:49:26.813Z,15.70
2017-11-08T06:51:32.053Z,15.90
2017-11-08T06:53:38.770Z,15.63
2017-11-08T07:01:21.542Z,15.07
2017-11-08T07:03:27.299Z,15.37
2017-11-08T07:12:49.762Z,15.20
2017-11-08T07:15:03.057Z,16.43
2017-11-08T07:19:32.658Z,14.00
2017-11-08T07:21:39.371Z,15.70
2017-11-08T07:23:45.230Z,14.70
2017-11-08T07:25:50.454Z,14.93
2017-11-08T07:27:56.189Z,15.17
2017-11-08T07:30:08.714Z,15.33
2017-11-08T07:32:14.005Z,15.57
2017-11-08T07:34:23.211Z,15.80
2017-11-08T07:36:32.337Z,15.43
2017-11-08T07:38:40.837Z,15.07
2017-11-08T07:40:51.301Z,15.70
2017-11-08T07:42:58.932Z,16.13
2017-11-08T07:45:05.932Z,16.07
2017-11-08T07:47:11.342Z,14.80
2017-11-08T07:49:17.080Z,15.83
2017-11-08T07:51:24.262Z,15.70
2017-11-08T07:53:30.087Z,16.07
2017-11-08T07:55:40.573Z,15.33
2017-11-08T07:57:46.759Z,16.10
2017-11-08T07:59:55.531Z,15.80
2017-11-08T08:02:03.802Z,15.63
2017-11-08T08:04:10.305Z,15.27
2017-11-08T08:06:19.246Z,15.13
2017-11-08T08:08:24.759Z,16.57
2017-11-08T08:10:30.607Z,14.87
2017-11-08T08:12:38.612Z,16.23
2017-11-08T08:14:44.680Z,16.40
2017-11-08T08:16:50.239Z,16.70
2017-11-08T08:18:55.564Z,15.33
2017-11-08T08:21:01.887Z,16.57
2017-11-08T08:23:07.259Z,15.90
2017-11-08T08:25:20.955Z,16.30
2017-11-08T08:27:31.388Z,15.00
2017-11-08T08:29:44.159Z,15.57
2017-11-08T08:31:50.812Z,15.03
2017-11-08T08:33:58.502Z,16.17
2017-11-08T08:36:05.163Z,15.83
2017-11-08T08:38:12.807Z,15.90
2017-11-08T08:40:19.499Z,17.37
2017-11-08T08:42:26.376Z,16.47
2017-11-08T08:44:32.288Z,16.37
2017-11-08T08:46:37.905Z,16.30
2017-11-08T08:48:44.392Z,17.43
2017-11-08T08:50:49.827Z,18.73
2017-11-08T08:52:55.426Z,15.77
2017-11-08T08:55:01.449Z,17.23
2017-11-08T08:57:08.267Z,17.30
2017-11-08T08:59:14.739Z,16.87
2017-11-08T09:01:21.380Z,16.83
2017-11-08T09:03:26.730Z,16.80
2017-11-08T09:05:32.199Z,16.43
2017-11-08T09:07:37.742Z,16.07
2017-11-08T09:09:45.373Z,17.13
2017-11-08T09:11:50.733Z,16.87
2017-11-08T09:13:57.475Z,16.70
2017-11-08T09:16:03.270Z,14.97
2017-11-08T09:18:08.961Z,16.50
2017-11-08T09:20:14.558Z,16.33
2017-11-08T09:22:21.714Z,16.67
2017-11-08T09:24:35.814Z,17.03
2017-11-08T09:26:47.004Z,17.97
2017-11-08T09:28:55.615Z,17.00
2017-11-08T09:31:06.675Z,16.73
2017-11-08T09:33:12.298Z,17.70
2017-11-08T09:35:17.855Z,16.90
2017-11-08T09:37:28.401Z,16.60
2017-11-08T09:39:34.557Z,16.30
2017-11-08T09:41:40.403Z,15.93
2017-11-08T09:43:52.051Z,16.73
2017-11-08T09:45:57.579Z,17.77
2017-11-08T09:48:04.298Z,16.77
2017-11-08T09:50:11.353Z,15.33
2017-11-08T09:52:16.732Z,16.40
2017-11-08T09:54:22.291Z,16.03
2017-11-08T09:56:28.617Z,16.23
2017-11-08T09:58:34.086Z,17.80
2017-11-08T10:00:42.878Z,16.80
2017-11-08T10:02:50.090Z,17.20
2017-11-08T10:04:55.784Z,17.17
2017-11-08T10:07:01.583Z,18.20
2017-11-08T10:09:08.110Z,15.43
2017-11-08T10:11:20.972Z,17.07
2017-11-08T10:13:30.759Z,18.03
2017-11-08T10:15:36.776Z,16.13
2017-11-08T10:17:44.548Z,16.97
2017-11-08T10:20:01.141Z,16.90
2017-11-08T10:22:11.932Z,17.30
2017-11-08T10:24:17.220Z,16.90
2017-11-08T10:26:23.338Z,16.70
2017-11-08T10:28:29.362Z,18.00
2017-11-08T10:30:36.863Z,17.40
2017-11-08T10:32:43.426Z,17.63
2017-11-08T10:34:49.237Z,17.93
2017-11-08T10:36:54.520Z,18.10
2017-11-08T10:39:02.613Z,17.03
2017-11-08T10:41:08.687Z,16.33
2017-11-08T10:43:15.038Z,17.47
2017-11-08T10:45:21.010Z,17.87
2017-11-08T10:47:27.145Z,15.73
2017-11-08T10:50:06.677Z,16.20
2017-11-08T10:52:13.122Z,16.40
2017-11-08T10:54:18.775Z,17.47
2017-11-08T10:56:24.326Z,17.40
2017-11-08T10:58:30.002Z,17.70
2017-11-08T11:00:58.088Z,17.63
2017-11-08T11:03:08.560Z,17.40
2017-11-08T11:05:14.389Z,16.70
2017-11-08T11:07:21.417Z,17.37
2017-11-08T11:09:27.259Z,17.00
2017-11-08T11:11:34.447Z,18.10
2017-11-08T11:13:49.464Z,17.53
2017-11-08T11:15:58.951Z,17.77
2017-11-08T11:18:24.297Z,18.90
2017-11-08T11:20:58.450Z,17.33
2017-11-08T11:23:08.116Z,18.20
2017-11-08T11:25:20.774Z,17.70
2017-11-08T11:27:27.183Z,18.10
2017-11-08T11:29:32.794Z,16.63
2017-11-08T11:31:38.423Z,18.00
2017-11-08T11:33:46.348Z,16.73
2017-11-08T11:35:55.647Z,17.73
2017-11-08T11:38:00.841Z,17.40
2017-11-08T11:40:12.988Z,18.20
2017-11-08T11:42:21.961Z,17.37
2017-11-08T11:44:27.176Z,18.07
2017-11-08T11:46:40.374Z,17.67
2017-11-08T11:49:21.832Z,17.20
2017-11-08T11:51:35.007Z,16.77
2017-11-08T11:53:49.342Z,16.53
2017-11-08T11:55:59.664Z,17.20
2017-11-08T11:58:11.191Z,15.90
2017-11-08T12:00:17.663Z,17.93
2017-11-08T12:02:23.338Z,18.33
2017-11-08T12:04:32.812Z,17.27
2017-11-08T12:06:49.492Z,16.33
2017-11-08T12:08:59.900Z,19.07
2017-11-08T12:11:06.428Z,16.93
2017-11-08T12:13:17.344Z,17.47
2017-11-08T12:15:28.602Z,18.20
2017-11-08T12:17:44.222Z,17.47
2017-11-08T12:19:50.951Z,17.33
2017-11-08T12:22:03.411Z,18.10
2017-11-08T12:24:17.347Z,18.10
2017-11-08T12:28:46.638Z,17.60
2017-11-08T12:30:52.224Z,16.70
2017-11-08T12:33:05.153Z,17.67
2017-11-08T12:35:22.330Z,18.73
2017-11-08T12:38:10.386Z,17.80
2017-11-08T12:40:25.090Z,17.77
2017-11-08T12:42:35.880Z,18.33
2017-11-08T12:44:49.822Z,17.10
2017-11-08T12:54:09.121Z,16.93
2017-11-08T12:56:14.675Z,18.93
2017-11-08T12:58:21.904Z,18.00
2017-11-08T13:00:28.109Z,18.97
2017-11-08T13:02:33.963Z,18.07
2017-11-08T13:04:41.298Z,18.00
2017-11-08T13:06:54.886Z,18.53
2017-11-08T13:09:08.195Z,18.23
2017-11-08T13:11:32.214Z,18.60
2017-11-08T13:13:47.177Z,18.97
2017-11-08T13:15:58.019Z,18.43
2017-11-08T13:18:09.345Z,17.33
2017-11-08T13:20:17.817Z,18.00
2017-11-08T13:22:26.501Z,17.90
2017-11-08T13:24:32.702Z,18.00
2017-11-08T13:27:33.414Z,17.97
2017-11-08T13:29:39.934Z,17.73
2017-11-08T13:31:49.812Z,17.90
2017-11-08T13:33:55.656Z,17.07
2017-11-08T13:36:01.444Z,18.80
2017-11-08T13:38:07.833Z,18.67
2017-11-08T13:40:15.711Z,18.50
2017-11-08T13:42:23.564Z,17.97
2017-11-08T13:44:29.531Z,19.60
2017-11-08T13:46:36.051Z,18.60
2017-11-08T13:48:42.617Z,18.43
2017-11-08T13:50:48.414Z,19.27
2017-11-08T13:52:55.974Z,19.03
2017-11-08T13:55:05.917Z,18.13
2017-11-08T13:57:13.730Z,18.83
2017-11-08T13:59:20.982Z,18.60
2017-11-08T14:01:30.608Z,18.30
2017-11-08T14:03:37.370Z,18.60
2017-11-08T14:05:49.514Z,19.20
2017-11-08T14:07:57.899Z,18.77
2017-11-08T14:10:07.867Z,18.20
2017-11-08T14:12:13.986Z,19.00
2017-11-08T14:14:29.499Z,18.53
2017-11-08T14:16:36.967Z,18.00
2017-11-08T14:18:43.549Z,17.40
2017-11-08T14:20:50.622Z,18.67
2017-11-08T14:22:57.883Z,19.37
2017-11-08T14:25:05.451Z,17.80
2017-11-08T14:27:13.041Z,18.07
2017-11-08T14:29:25.809Z,19.20
2017-11-08T14:31:38.289Z,18.57
2017-11-08T14:33:46.229Z,18.60
2017-11-08T14:35:55.314Z,18.53
2017-11-08T14:38:02.675Z,18.27
2017-11-08T14:40:12.442Z,18.30
2017-11-08T14:42:25.399Z,19.10
2017-11-08T14:44:33.120Z,18.50
2017-11-08T14:46:43.219Z,17.63
2017-11-08T14:48:50.214Z,18.97
2017-11-08T14:51:05.587Z,17.83
2017-11-08T14:53:18.001Z,17.83
2017-11-08T14:55:27.024Z,18.43
2017-11-08T14:57:35.990Z,19.30
2017-11-08T14:59:48.138Z,18.77
2017-11-08T15:01:56.324Z,19.60
2017-11-08T15:04:09.796Z,19.53
2017-11-08T15:06:21.010Z,18.43
2017-11-08T15:08:28.061Z,21.27
2017-11-08T15:10:38.382Z,20.17
2017-11-08T15:12:47.303Z,19.33
2017-11-08T15:15:36.604Z,18.63
2017-11-08T15:17:56.268Z,19.57
2017-11-08T15:20:13.970Z,19.30
2017-11-08T15:22:27.551Z,18.80
2017-11-08T15:24:50.981Z,19.90
2017-11-08T15:27:13.627Z,19.93
2017-11-08T15:29:33.333Z,19.90
2017-11-08T15:31:45.179Z,20.30
2017-11-08T15:34:01.571Z,20.43
2017-11-08T15:36:18.576Z,19.00
2017-11-08T15:38:28.651Z,19.63
2017-11-08T15:40:40.191Z,20.67
2017-11-08T15:42:49.173Z,19.73
2017-11-08T15:44:58.075Z,19.87
2017-11-08T15:47:10.772Z,20.20
2017-11-08T15:49:21.097Z,20.80
2017-11-08T15:51:31.879Z,20.60
2017-11-08T15:54:07.240Z,20.00
2017-11-08T15:56:19.195Z,20.20
2017-11-08T15:58:30.676Z,20.20
2017-11-08T16:00:42.689Z,20.10
2017-11-08T16:02:56.255Z,19.60
2017-11-08T16:05:53.264Z,20.47
2017-11-08T16:08:18.570Z,21.87
2017-11-08T16:10:36.462Z,20.60
2017-11-08T16:12:48.476Z,20.37
2017-11-08T16:14:58.772Z,20.47
2017-11-08T16:17:07.390Z,19.70
2017-11-08T16:19:22.395Z,21.50
2017-11-08T16:21:32.186Z,21.60
2017-11-08T16:23:46.959Z,21.07
2017-11-08T16:25:55.162Z,21.17
2017-11-08T16:28:02.766Z,21.43
2017-11-08T16:30:17.377Z,20.73
2017-11-08T16:32:28.657Z,21.20
2017-11-08T16:34:39.540Z,20.17
2017-11-08T16:36:53.728Z,20.73
2017-11-08T16:39:06.115Z,21.63
2017-11-08T16:41:13.424Z,21.50
2017-11-08T16:43:25.769Z,22.77
2017-11-08T16:45:36.145Z,20.50
2017-11-08T16:47:46.647Z,21.60
2017-11-08T16:49:54.012Z,20.50
2017-11-08T16:52:03.856Z,20.77
2017-11-08T16:54:15.656Z,20.40
2017-11-08T16:56:21.976Z,21.73
2017-11-08T16:58:28.150Z,21.40
2017-11-08T17:00:36.855Z,21.53
2017-11-08T17:02:44.950Z,21.53
2017-11-08T17:04:53.721Z,20.43
2017-11-08T17:07:03.440Z,21.53
2017-11-08T17:09:11.208Z,20.63
2017-11-08T17:11:19.450Z,21.63
2017-11-08T17:13:28.610Z,21.03
2017-11-08T17:15:36.783Z,21.57
2017-11-08T17:17:50.621Z,21.27
2017-11-08T17:20:03.588Z,22.50
2017-11-08T17:22:12.666Z,21.70
2017-11-08T17:24:20.439Z,21.77
2017-11-08T17:26:29.427Z,21.57
2017-11-08T17:28:37.144Z,23.20
2017-11-08T17:30:47.891Z,21.00
2017-11-08T17:32:59.961Z,22.67
2017-11-08T17:35:10.722Z,21.27
2017-11-08T17:37:17.813Z,22.03
2017-11-08T17:39:26.835Z,21.63
2017-11-08T17:41:35.706Z,21.53
2017-11-08T17:43:53.710Z,21.27
2017-11-08T17:46:10.701Z,23.33
2017-11-08T17:48:17.870Z,21.33
2017-11-08T17:50:23.879Z,21.77
2017-11-08T17:55:14.568Z,21.87
2017-11-08T17:57:25.730Z,22.53
2017-11-08T17:59:33.050Z,21.57
2017-11-08T18:01:46.123Z,22.20
2017-11-08T18:03:58.736Z,22.80
2017-11-08T18:08:28.349Z,22.17
2017-11-08T18:10:38.527Z,22.60
2017-11-08T18:12:51.744Z,21.97
2017-11-08T18:15:09.255Z,22.43
2017-11-08T18:17:15.322Z,22.37
2017-11-08T18:19:20.865Z,22.53
2017-11-08T18:21:27.078Z,23.00
2017-11-08T18:23:33.595Z,22.70
2017-11-08T18:25:40.482Z,22.50
2017-11-08T18:27:48.752Z,23.33
2017-11-08T18:29:56.307Z,22.87
2017-11-08T18:32:02.816Z,22.33
2017-11-08T18:34:13.547Z,22.17
2017-11-08T18:36:29.352Z,22.43
2017-11-08T18:38:36.258Z,23.77
2017-11-08T18:43:13.459Z,23.23
2017-11-08T18:45:24.016Z,23.83
2017-11-08T18:47:34.976Z,22.83
2017-11-08T18:49:42.913Z,23.70
2017-11-08T18:51:52.524Z,22.80
2017-11-08T18:54:03.401Z,22.97
2017-11-08T18:56:17.127Z,23.20
2017-11-08T18:58:26.037Z,20.33
2017-11-08T19:00:34.950Z,23.50
2017-11-08T19:02:48.637Z,22.73
2017-11-08T19:04:55.393Z,21.43
2017-11-08T19:07:01.515Z,22.63
2017-11-08T19:09:10.396Z,23.40
2017-11-08T19:11:21.444Z,23.23
2017-11-08T19:13:30.974Z,22.90
2017-11-08T19:15:39.680Z,21.93
2017-11-08T19:17:59.972Z,22.97
2017-11-08T19:20:13.303Z,24.60
2017-11-08T19:22:23.632Z,22.27
2017-11-08T19:24:37.935Z,22.73
2017-11-08T19:26:44.920Z,23.30
2017-11-08T19:30:15.504Z,22.77
2017-11-08T19:32:23.758Z,23.17
2017-11-08T19:34:58.455Z,22.50
2017-11-08T19:37:04.512Z,22.27
2017-11-08T19:39:10.489Z,22.40
2017-11-08T19:41:18.782Z,21.50
2017-11-08T19:43:25.740Z,22.00
2017-11-08T19:45:35.951Z,22.70
2017-11-08T19:47:52.580Z,22.23
2017-11-08T19:49:59.922Z,22.03
2017-11-08T19:52:14.124Z,21.83
2017-11-08T19:54:26.017Z,22.90
2017-11-08T19:56:32.873Z,22.50
2017-11-08T19:58:39.377Z,22.60
2017-11-08T20:00:45.922Z,22.60
2017-11-08T20:02:55.331Z,23.10
2017-11-08T20:05:01.064Z,23.27
2017-11-08T20:07:07.146Z,21.63
2017-11-08T20:09:14.093Z,23.40
2017-11-08T20:11:24.245Z,23.30
2017-11-08T20:13:30.425Z,22.37
2017-11-08T20:15:37.470Z,23.80
2017-11-08T20:17:43.344Z,22.67
2017-11-08T20:19:49.625Z,23.17
2017-11-08T20:21:55.723Z,21.40
2017-11-08T20:24:05.877Z,23.53
2017-11-08T20:26:11.577Z,22.53
2017-11-08T20:28:17.531Z,22.30
2017-11-08T20:30:23.588Z,23.60
2017-11-08T20:32:29.162Z,24.37
2017-11-08T20:34:34.848Z,22.43
2017-11-08T20:36:41.023Z,23.47
2017-11-08T20:38:50.569Z,22.10
2017-11-08T20:40:56.239Z,22.67
2017-11-08T20:43:01.900Z,24.30
2017-11-08T20:45:09.846Z,22.50
2017-11-08T20:47:16.061Z,22.60
2017-11-08T20:49:22.443Z,22.80
2017-11-08T20:51:28.295Z,23.40
2017-11-08T20:53:34.317Z,24.10
2017-11-08T20:55:40.652Z,23.27
2017-11-08T20:57:46.656Z,21.90
2017-11-08T20:59:52.514Z,24.80
2017-11-08T21:01:58.447Z,23.90
2017-11-08T21:04:07.074Z,23.13
2017-11-08T21:06:14.171Z,23.53
2017-11-08T21:08:24.217Z,25.90
2017-11-08T21:10:31.778Z,24.20
2017-11-08T21:12:39.269Z,25.83
2017-11-08T21:14:57.296Z,26.37
2017-11-08T21:17:10.151Z,25.47
2017-11-08T21:21:42.466Z,26.00
2017-11-08T21:23:53.648Z,24.87
2017-11-08T21:26:02.124Z,26.20
2017-11-08T21:28:18.434Z,26.63
2017-11-08T21:30:26.546Z,25.20
2017-11-08T21:34:51.644Z,24.57
2017-11-08T21:37:03.322Z,25.30
2017-11-08T21:39:12.721Z,25.87
2017-11-08T21:41:21.998Z,25.43
2017-11-08T21:43:29.595Z,25.00
2017-11-08T21:45:35.479Z,24.70
2017-11-08T21:47:50.393Z,24.20
2017-11-08T21:50:02.427Z,23.87
2017-11-08T21:52:12.426Z,24.80
2017-11-08T21:54:19.620Z,25.30
2017-11-08T21:56:25.497Z,24.93
2017-11-08T21:58:32.157Z,25.23
2017-11-08T22:00:38.811Z,23.67
2017-11-08T22:02:49.228Z,24.60
2017-11-08T22:04:59.094Z,25.00
2017-11-08T22:07:06.243Z,24.00
2017-11-08T22:09:14.662Z,25.30
2017-11-08T22:11:22.055Z,24.30
2017-11-08T22:13:28.926Z,24.20
2017-11-08T22:15:39.903Z,25.20
2017-11-08T22:17:49.926Z,24.40
2017-11-08T22:19:59.343Z,23.63
2017-11-08T22:22:05.149Z,25.63
2017-11-08T22:24:17.294Z,25.57
2017-11-08T22:26:25.973Z,25.43
2017-11-08T22:28:39.562Z,25.17
2017-11-08T22:30:45.517Z,25.13
2017-11-08T22:32:55.310Z,24.00
2017-11-08T22:35:04.739Z,24.47
2017-11-08T22:37:12.758Z,24.10
2017-11-08T22:39:18.717Z,23.80
2017-11-08T22:41:24.751Z,24.70
2017-11-08T22:43:30.493Z,23.80
2017-11-08T22:45:36.296Z,25.67
2017-11-08T22:47:42.198Z,23.37
2017-11-08T22:49:49.312Z,25.00
2017-11-08T22:51:55.106Z,24.43
2017-11-08T22:54:04.499Z,24.07
2017-11-08T22:56:13.595Z,23.73
2017-11-08T22:58:19.395Z,23.47
2017-11-08T23:00:25.886Z,23.93
2017-11-08T23:02:31.494Z,24.50
2017-11-08T23:04:38.149Z,23.27
2017-11-08T23:06:44.110Z,23.40
2017-11-08T23:08:49.338Z,24.40
2017-11-08T23:10:54.852Z,24.80
2017-11-08T23:13:00.621Z,24.20
2017-11-08T23:15:07.666Z,22.20
2017-11-08T23:17:13.147Z,24.30
2017-11-08T23:19:19.038Z,24.27
2017-11-08T23:21:24.840Z,22.97
2017-11-08T23:23:30.522Z,23.70
2017-11-08T23:25:36.099Z,24.20
2017-11-08T23:27:41.371Z,21.60
2017-11-08T23:29:46.815Z,23.00
2017-11-08T23:31:52.613Z,21.73
2017-11-08T23:33:58.387Z,23.47
2017-11-08T23:36:04.071Z,22.63
2017-11-08T23:38:11.363Z,22.63
2017-11-08T23:40:18.037Z,21.60
2017-11-08T23:42:25.043Z,735.43
2017-11-08T23:44:30.611Z,891.23
2017-11-08T23:46:38.153Z,244.30
2017-11-08T23:48:43.471Z,196.27
2017-11-08T23:50:51.519Z,266.83
2017-11-08T23:52:59.098Z,307.37
2017-11-08T23:55:09.605Z,300.57
2017-11-08T23:57:21.849Z,287.80
2017-11-08T23:59:30.553Z,278.23
